Xenios — D5OC2 — position and weather

sailwx.info

Track history (hours):
 
Tides and Currents Weather Stations Pressure Air Temp Water Temp Dewpoint Dewpoint Depression Visibility Wind Speed Wind Dir Waves Ship Positions

Xenios

Last reported at 2018-Jun-22 21:06 UTC. Time now 2018-Jun-24 03:10 UTC.
Position N 21°34' W 089°55'.

Length 179 m; draft 7.3 m.

Type: Ship (hazmat cat B). MMSI: 636018081.

Date/timePositionNaut miles runAvg speedWind from/ knotsBaromVisibWave heightAir tempDewpointWater temp
2018-Jun-22 21:06N 21°34' W 089°55'218.5
2018-Jun-22 21:00N 21°33' W 089°53'713.0
2018-Jun-22 20:26N 21°30' W 089°46'511.0
2018-Jun-22 19:59N 21°26' W 089°42'5 8.8
2018-Jun-22 19:27N 21°22' W 089°41'1 2.9
2018-Jun-22 19:00N 21°21' W 089°41'0 0.0
2018-Jun-22 18:30N 21°21' W 089°41'0 0.0
2018-Jun-22 17:55N 21°21' W 089°41'0 0.0
2018-Jun-22 17:26N 21°21' W 089°41'0 0.0
2018-Jun-22 17:00N 21°21' W 089°41'0 0.0
2018-Jun-22 16:28N 21°21' W 089°41'0 0.0
2018-Jun-22 15:53N 21°21' W 089°41'0 0.0
2018-Jun-22 15:24N 21°21' W 089°41'0 0.0
2018-Jun-22 14:57N 21°21' W 089°41'0 0.0
2018-Jun-22 14:29N 21°21' W 089°41'0 0.0
2018-Jun-22 13:54N 21°21' W 089°41'0 0.0
2018-Jun-22 13:30N 21°21' W 089°41'0 0.0
2018-Jun-22 12:57N 21°21' W 089°41'0 0.0
2018-Jun-22 12:26N 21°21' W 089°41'0 0.0
2018-Jun-22 11:58N 21°21' W 089°41'0 0.0
2018-Jun-22 11:17N 21°21' W 089°41'0 0.0
2018-Jun-22 10:54N 21°21' W 089°41'0 0.0
2018-Jun-22 10:29N 21°21' W 089°41'3 6.6
2018-Jun-22 09:59N 21°24' W 089°41'5 6.9
2018-Jun-22 09:19N 21°29' W 089°41'1 1.6
2018-Jun-22 08:58N 21°28' W 089°40'1 0.4
2018-Jun-22 07:39N 21°28' W 089°40'0 0.0
2018-Jun-22 07:28N 21°28' W 089°40'0 0.0
2018-Jun-22 06:58N 21°28' W 089°40'0 0.0
2018-Jun-22 06:27N 21°28' W 089°40'0 0.0
2018-Jun-22 05:53N 21°28' W 089°40'0 0.0
2018-Jun-22 05:27N 21°28' W 089°40'0 0.0
2018-Jun-22 03:12N 21°28' W 089°40'0 0.0
2018-Jun-22 02:49N 21°28' W 089°40'0 0.0
2018-Jun-22 02:30N 21°28' W 089°40'0 0.0
2018-Jun-21 23:19N 21°28' W 089°40'0 0.0
2018-Jun-21 22:49N 21°28' W 089°40'0 0.0
2018-Jun-21 20:36N 21°28' W 089°40'0 0.1
2018-Jun-21 20:24N 21°28' W 089°40'0 0.0
2018-Jun-21 19:58N 21°28' W 089°40'0 0.0
2018-Jun-21 19:27N 21°28' W 089°40'0 0.1
2018-Jun-21 18:13N 21°28' W 089°40'0 0.0
2018-Jun-21 17:53N 21°28' W 089°40'0 0.0
2018-Jun-21 17:26N 21°28' W 089°40'0 0.0
2018-Jun-21 16:59N 21°28' W 089°40'0 0.0
2018-Jun-21 16:19N 21°28' W 089°40'0 0.0
2018-Jun-21 16:00N 21°28' W 089°40'0 0.0
2018-Jun-21 15:28N 21°28' W 089°40'0 0.0
2018-Jun-21 14:55N 21°28' W 089°40'0 0.0
2018-Jun-21 14:30N 21°28' W 089°40'0 0.0
2018-Jun-21 14:01N 21°28' W 089°40'0 0.0
2018-Jun-21 13:27N 21°28' W 089°40'0 0.0
2018-Jun-21 12:52N 21°28' W 089°40'0 0.0
2018-Jun-21 12:27N 21°28' W 089°40'0 0.0
2018-Jun-21 11:42N 21°28' W 089°40'0 0.0
2018-Jun-21 11:28N 21°28' W 089°40'0 0.0
2018-Jun-21 11:00N 21°28' W 089°40'0 0.0
2018-Jun-21 10:30N 21°28' W 089°40'0 0.0
2018-Jun-21 09:58N 21°28' W 089°40'0 0.0
2018-Jun-21 09:22N 21°28' W 089°40'0 0.0
2018-Jun-21 08:51N 21°28' W 089°40'0 0.0
2018-Jun-21 08:27N 21°28' W 089°40'0 0.0
2018-Jun-21 07:59N 21°28' W 089°40'0 0.0
2018-Jun-21 07:27N 21°28' W 089°40'0 0.0
2018-Jun-21 06:57N 21°28' W 089°40'0 0.0
2018-Jun-21 06:27N 21°28' W 089°40'0 0.0
2018-Jun-21 05:58N 21°28' W 089°40'0 0.0
2018-Jun-21 05:30N 21°28' W 089°40'0 0.0
2018-Jun-21 04:55N 21°28' W 089°40'0 0.0
2018-Jun-21 04:28N 21°28' W 089°40'0 0.0
2018-Jun-21 03:53N 21°28' W 089°40'1 1.8
2018-Jun-21 03:15N 21°28' W 089°41'18 9.5
2018-Jun-21 01:22N 21°44' W 089°34'714.0
2018-Jun-21 00:54N 21°50' W 089°30'513.4
2018-Jun-21 00:30N 21°54' W 089°26'  
Track history (hours):
 
Tides and Currents Weather Stations Pressure Air Temp Water Temp Dewpoint Dewpoint Depression Visibility Wind Speed Wind Dir Waves Ship Positions

Xenios

Last reported at 2018-Jun-22 21:06 UTC. Time now 2018-Jun-24 03:10 UTC.
Position N 21°34' W 089°55'.

Length 179 m; draft 7.3 m.

Type: Ship (hazmat cat B). MMSI: 636018081.

Date/timePositionNaut miles runAvg speedWind from/ knotsBaromVisibWave heightAir tempDewpointWater temp
2018-Jun-22 21:06N 21°34' W 089°55'218.5
2018-Jun-22 21:00N 21°33' W 089°53'713.0
2018-Jun-22 20:26N 21°30' W 089°46'511.0
2018-Jun-22 19:59N 21°26' W 089°42'5 8.8
2018-Jun-22 19:27N 21°22' W 089°41'1 2.9
2018-Jun-22 19:00N 21°21' W 089°41'0 0.0
2018-Jun-22 18:30N 21°21' W 089°41'0 0.0
2018-Jun-22 17:55N 21°21' W 089°41'0 0.0
2018-Jun-22 17:26N 21°21' W 089°41'0 0.0
2018-Jun-22 17:00N 21°21' W 089°41'0 0.0
2018-Jun-22 16:28N 21°21' W 089°41'0 0.0
2018-Jun-22 15:53N 21°21' W 089°41'0 0.0
2018-Jun-22 15:24N 21°21' W 089°41'0 0.0
2018-Jun-22 14:57N 21°21' W 089°41'0 0.0
2018-Jun-22 14:29N 21°21' W 089°41'0 0.0
2018-Jun-22 13:54N 21°21' W 089°41'0 0.0
2018-Jun-22 13:30N 21°21' W 089°41'0 0.0
2018-Jun-22 12:57N 21°21' W 089°41'0 0.0
2018-Jun-22 12:26N 21°21' W 089°41'0 0.0
2018-Jun-22 11:58N 21°21' W 089°41'0 0.0
2018-Jun-22 11:17N 21°21' W 089°41'0 0.0
2018-Jun-22 10:54N 21°21' W 089°41'0 0.0
2018-Jun-22 10:29N 21°21' W 089°41'3 6.6
2018-Jun-22 09:59N 21°24' W 089°41'5 6.9
2018-Jun-22 09:19N 21°29' W 089°41'1 1.6
2018-Jun-22 08:58N 21°28' W 089°40'1 0.4
2018-Jun-22 07:39N 21°28' W 089°40'0 0.0
2018-Jun-22 07:28N 21°28' W 089°40'0 0.0
2018-Jun-22 06:58N 21°28' W 089°40'0 0.0
2018-Jun-22 06:27N 21°28' W 089°40'0 0.0
2018-Jun-22 05:53N 21°28' W 089°40'0 0.0
2018-Jun-22 05:27N 21°28' W 089°40'0 0.0
2018-Jun-22 03:12N 21°28' W 089°40'0 0.0
2018-Jun-22 02:49N 21°28' W 089°40'0 0.0
2018-Jun-22 02:30N 21°28' W 089°40'0 0.0
2018-Jun-21 23:19N 21°28' W 089°40'0 0.0
2018-Jun-21 22:49N 21°28' W 089°40'0 0.0
2018-Jun-21 20:36N 21°28' W 089°40'0 0.1
2018-Jun-21 20:24N 21°28' W 089°40'0 0.0
2018-Jun-21 19:58N 21°28' W 089°40'0 0.0
2018-Jun-21 19:27N 21°28' W 089°40'0 0.1
2018-Jun-21 18:13N 21°28' W 089°40'0 0.0
2018-Jun-21 17:53N 21°28' W 089°40'0 0.0
2018-Jun-21 17:26N 21°28' W 089°40'0 0.0
2018-Jun-21 16:59N 21°28' W 089°40'0 0.0
2018-Jun-21 16:19N 21°28' W 089°40'0 0.0
2018-Jun-21 16:00N 21°28' W 089°40'0 0.0
2018-Jun-21 15:28N 21°28' W 089°40'0 0.0
2018-Jun-21 14:55N 21°28' W 089°40'0 0.0
2018-Jun-21 14:30N 21°28' W 089°40'0 0.0
2018-Jun-21 14:01N 21°28' W 089°40'0 0.0
2018-Jun-21 13:27N 21°28' W 089°40'0 0.0
2018-Jun-21 12:52N 21°28' W 089°40'0 0.0
2018-Jun-21 12:27N 21°28' W 089°40'0 0.0
2018-Jun-21 11:42N 21°28' W 089°40'0 0.0
2018-Jun-21 11:28N 21°28' W 089°40'0 0.0
2018-Jun-21 11:00N 21°28' W 089°40'0 0.0
2018-Jun-21 10:30N 21°28' W 089°40'0 0.0
2018-Jun-21 09:58N 21°28' W 089°40'0 0.0
2018-Jun-21 09:22N 21°28' W 089°40'0 0.0
2018-Jun-21 08:51N 21°28' W 089°40'0 0.0
2018-Jun-21 08:27N 21°28' W 089°40'0 0.0
2018-Jun-21 07:59N 21°28' W 089°40'0 0.0
2018-Jun-21 07:27N 21°28' W 089°40'0 0.0
2018-Jun-21 06:57N 21°28' W 089°40'0 0.0
2018-Jun-21 06:27N 21°28' W 089°40'0 0.0
2018-Jun-21 05:58N 21°28' W 089°40'0 0.0
2018-Jun-21 05:30N 21°28' W 089°40'0 0.0
2018-Jun-21 04:55N 21°28' W 089°40'0 0.0
2018-Jun-21 04:28N 21°28' W 089°40'0 0.0
2018-Jun-21 03:53N 21°28' W 089°40'1 1.8
2018-Jun-21 03:15N 21°28' W 089°41'18 9.5
2018-Jun-21 01:22N 21°44' W 089°34'714.0
2018-Jun-21 00:54N 21°50' W 089°30'513.4
2018-Jun-21 00:30N 21°54' W 089°26'  

Dump ship's entire track history